Adrian, North Dakota
Current Conditions -  °F | °C
As of 7:56 AM on Monday 24 Nov 2014 (Local Time) from KJMS Reporting Station
Clear Clear  
Wind Chill: -25°   Ceiling: Unl
Heat Index: -13°   Visibility: 10mi
Dew Point: -16°   Wind: 24mph
Humidity: 80%   Direction: 330°NNW
Pressure: 29.73"   Gusts: 31mph
Location:  46.6526°N, 98.6214°W
Report Text: KJMS 241356Z AUTO 33021G27KT 10SM CLR M13/M16 A2973 RMK AO2 PK WND 32031/1309 UPB03E22SNE03 SLP098 P0000 T11331161
Loading
Personal Weather Stations






























Interactive Weather Map New forecast layout! Learn more

10-Day Weather Forecast

Advertisements
Track Severe Weather on mobile